Time;durP1;ratioP1;P1;durP2;ratioP2;P2;SDS_P1;SDS_P2;PMS_P1;PMS_P2;Temp;Humidity;BMP_temperature;BMP_pressure;BME280_temperature;BME280_humidity;BME280_pressure;Samples;Min_cycle;Max_cycle;Signal;HPM_P1;HPM_P2
2021/12/01 00:00:02;;;;;;;10.47;9.27;;;;;;;;;;5034690;28;20196;-66
2021/12/01 00:02:28;;;;;;;9.30;8.40;;;;;;;;;;5033038;28;20716;-66
2021/12/01 00:04:54;;;;;;;7.33;6.63;;;;;;;;;;5032866;28;20273;-66
2021/12/01 00:07:19;;;;;;;8.63;7.83;;;;;;;;;;5034055;28;20262;-66
2021/12/01 00:09:45;;;;;;;6.80;6.10;;;;;;;;;;5033965;28;20199;-66
2021/12/01 00:12:11;;;;;;;6.13;5.53;;;;;;;;;;5034244;28;20209;-66
2021/12/01 00:14:37;;;;;;;5.83;5.33;;;;;;;;;;5033771;28;20179;-66
2021/12/01 00:17:04;;;;;;;6.23;5.70;;;;;;;;;;5033736;28;20214;-66
2021/12/01 00:19:31;;;;;;;6.23;5.37;;;;;;;;;;5032213;28;20244;-66
2021/12/01 00:21:57;;;;;;;6.40;5.80;;;;;;;;;;5032435;28;20191;-66
2021/12/01 00:24:23;;;;;;;5.20;4.80;;;;;;;;;;5033634;28;20266;-66
2021/12/01 00:26:51;;;;;;;6.10;5.50;;;;;;;;;;5034133;28;20262;-66
2021/12/01 00:29:17;;;;;;;8.57;6.13;;;;;;;;;;5033147;28;20650;-66
2021/12/01 00:31:43;;;;;;;6.27;5.77;;;;;;;;;;5033227;28;20211;-66
2021/12/01 00:34:09;;;;;;;5.97;5.47;;;;;;;;;;5032218;28;20179;-66
2021/12/01 00:36:35;;;;;;;5.90;5.30;;;;;;;;;;5032067;28;20189;-65
2021/12/01 00:39:01;;;;;;;8.50;4.67;;;;;;;;;;5034054;28;20175;-66
2021/12/01 00:41:26;;;;;;;6.13;5.53;;;;;;;;;;5033736;28;20571;-65
2021/12/01 00:43:53;;;;;;;5.73;5.23;;;;;;;;;;5033461;28;20194;-66
2021/12/01 00:46:37;;;;;;;6.90;5.50;;;;;;;;;;5033858;28;20183;-66
2021/12/01 00:49:03;;;;;;;5.97;5.40;;;;;;;;;;5033613;28;20159;-66
2021/12/01 00:51:29;;;;;;;6.80;5.87;;;;;;;;;;5031863;28;20336;-66
2021/12/01 00:53:55;;;;;;;6.00;5.50;;;;;;;;;;5031995;28;20328;-66
2021/12/01 00:56:21;;;;;;;5.83;5.33;;;;;;;;;;5033489;28;20179;-66
2021/12/01 00:58:47;;;;;;;6.87;6.17;;;;;;;;;;5032017;28;20187;-66
2021/12/01 01:01:13;;;;;;;5.33;4.83;;;;;;;;;;5033153;28;20197;-65
2021/12/01 01:03:39;;;;;;;8.47;5.63;;;;;;;;;;5033725;28;20528;-65
2021/12/01 01:06:05;;;;;;;8.93;5.90;;;;;;;;;;5033147;28;20187;-66
2021/12/01 01:08:32;;;;;;;5.57;5.07;;;;;;;;;;5033112;28;20183;-65
2021/12/01 01:16:24;;;;;;;6.47;4.87;;;;;;;;;;5033631;28;20537;-66
2021/12/01 01:18:52;;;;;;;4.93;4.43;;;;;;;;;;5031763;28;20171;-66
2021/12/01 01:21:19;;;;;;;4.80;4.27;;;;;;;;;;5032976;28;20198;-65
2021/12/01 01:23:45;;;;;;;4.63;4.23;;;;;;;;;;5031702;28;20282;-66
2021/12/01 01:26:13;;;;;;;4.67;4.27;;;;;;;;;;5031715;28;20182;-66
2021/12/01 01:28:39;;;;;;;4.87;4.47;;;;;;;;;;5032936;28;20183;-66
2021/12/01 01:31:06;;;;;;;4.53;4.10;;;;;;;;;;5032778;28;20213;-66
2021/12/01 01:33:32;;;;;;;4.50;4.07;;;;;;;;;;5031678;28;20699;-66
2021/12/01 01:35:58;;;;;;;5.07;3.77;;;;;;;;;;5033007;28;20211;-65
2021/12/01 01:38:24;;;;;;;4.40;4.10;;;;;;;;;;5032884;28;20210;-65
2021/12/01 01:40:50;;;;;;;4.60;4.20;;;;;;;;;;5032361;28;20290;-66
2021/12/01 01:43:16;;;;;;;6.50;4.10;;;;;;;;;;5035218;28;20232;-65
2021/12/01 01:45:42;;;;;;;3.50;3.27;;;;;;;;;;5036481;28;20183;-65
2021/12/01 01:48:13;;;;;;;4.20;3.80;;;;;;;;;;5036603;28;20175;-65
2021/12/01 01:50:40;;;;;;;4.30;3.10;;;;;;;;;;5036363;28;20245;-65
2021/12/01 01:53:09;;;;;;;3.50;3.13;;;;;;;;;;5035238;28;20238;-65
2021/12/01 01:55:35;;;;;;;3.73;3.20;;;;;;;;;;5035171;28;20269;-65
2021/12/01 01:58:02;;;;;;;4.93;3.50;;;;;;;;;;5034991;28;20190;-65
2021/12/01 02:00:28;;;;;;;3.70;3.40;;;;;;;;;;5036236;28;20338;-65
2021/12/01 02:02:57;;;;;;;4.53;2.80;;;;;;;;;;5035036;28;20219;-65
2021/12/01 02:05:23;;;;;;;3.50;3.20;;;;;;;;;;5034964;28;20191;-65
2021/12/01 02:07:51;;;;;;;2.90;2.50;;;;;;;;;;5035082;28;20520;-65
2021/12/01 02:10:17;;;;;;;3.23;2.60;;;;;;;;;;5036235;28;20710;-65
2021/12/01 02:12:43;;;;;;;3.60;2.63;;;;;;;;;;5036305;28;20207;-64
2021/12/01 02:15:09;;;;;;;2.70;2.50;;;;;;;;;;5035920;28;20175;-65
2021/12/01 02:17:36;;;;;;;2.90;2.70;;;;;;;;;;5035949;28;20207;-64
2021/12/01 02:20:02;;;;;;;2.97;2.77;;;;;;;;;;5035912;28;20210;-65
2021/12/01 02:22:30;;;;;;;5.60;3.07;;;;;;;;;;5035837;28;20182;-64
2021/12/01 02:24:56;;;;;;;3.87;3.00;;;;;;;;;;5036112;28;20285;-65
2021/12/01 02:27:23;;;;;;;3.17;2.87;;;;;;;;;;5036108;28;20186;-65
2021/12/01 02:29:51;;;;;;;3.17;2.87;;;;;;;;;;5035425;28;20214;-64
2021/12/01 02:32:17;;;;;;;3.30;3.00;;;;;;;;;;5034514;28;20215;-65
2021/12/01 02:34:44;;;;;;;3.20;2.90;;;;;;;;;;5034379;28;20266;-65
2021/12/01 02:37:11;;;;;;;4.57;2.60;;;;;;;;;;5035511;28;20205;-64
2021/12/01 02:39:38;;;;;;;3.30;3.00;;;;;;;;;;5034245;28;20190;-64
2021/12/01 02:42:07;;;;;;;4.33;3.10;;;;;;;;;;5034207;28;20274;-65
2021/12/01 02:44:33;;;;;;;5.00;3.17;;;;;;;;;;5034120;28;20187;-64
2021/12/01 02:47:00;;;;;;;3.60;3.30;;;;;;;;;;5034080;28;20190;-64
2021/12/01 02:49:28;;;;;;;3.40;3.10;;;;;;;;;;5035533;28;20179;-66
2021/12/01 02:51:55;;;;;;;2.90;2.70;;;;;;;;;;5033677;28;20286;-64
2021/12/01 02:54:22;;;;;;;3.60;3.30;;;;;;;;;;5035243;28;20213;-64
2021/12/01 02:56:49;;;;;;;5.03;3.30;;;;;;;;;;5033952;28;20175;-65
2021/12/01 02:59:16;;;;;;;3.60;3.30;;;;;;;;;;5035255;28;20586;-64
2021/12/01 03:01:42;;;;;;;3.57;3.27;;;;;;;;;;5035024;28;20199;-64
2021/12/01 03:04:08;;;;;;;3.43;3.13;;;;;;;;;;5033782;28;20183;-64
2021/12/01 03:06:36;;;;;;;4.40;3.60;;;;;;;;;;5035212;28;20187;-64
2021/12/01 03:09:04;;;;;;;2.90;2.70;;;;;;;;;;5035458;28;20210;-65
2021/12/01 03:11:30;;;;;;;4.00;3.63;;;;;;;;;;5034815;28;20236;-64
2021/12/01 03:13:56;;;;;;;3.80;3.50;;;;;;;;;;5034958;28;20655;-64
2021/12/01 03:16:23;;;;;;;4.27;3.87;;;;;;;;;;5033545;28;20572;-64
2021/12/01 03:18:49;;;;;;;4.30;3.90;;;;;;;;;;5034686;28;20528;-65
2021/12/01 03:21:15;;;;;;;5.20;4.70;;;;;;;;;;5034786;28;20199;-64
2021/12/01 03:23:41;;;;;;;4.00;3.70;;;;;;;;;;5034640;28;20178;-64
2021/12/01 03:26:07;;;;;;;4.63;4.23;;;;;;;;;;5034862;28;20539;-64
2021/12/01 03:28:34;;;;;;;4.57;4.17;;;;;;;;;;5033352;28;20183;-64
2021/12/01 03:31:00;;;;;;;5.07;4.67;;;;;;;;;;5033080;28;20586;-65
2021/12/01 03:33:26;;;;;;;8.90;4.77;;;;;;;;;;5033079;28;20279;-64
2021/12/01 03:35:53;;;;;;;5.20;4.80;;;;;;;;;;5033074;28;20188;-64
2021/12/01 03:38:20;;;;;;;5.43;4.87;;;;;;;;;;5034344;28;20262;-64
2021/12/01 03:40:46;;;;;;;6.27;5.03;;;;;;;;;;5034209;28;20194;-64
2021/12/01 03:43:12;;;;;;;5.83;5.27;;;;;;;;;;5034225;28;20557;-64
2021/12/01 03:45:38;;;;;;;7.47;5.40;;;;;;;;;;5034530;28;20178;-64
2021/12/01 03:48:04;;;;;;;5.80;5.10;;;;;;;;;;5032901;28;20224;-64
2021/12/01 03:50:30;;;;;;;6.67;5.30;;;;;;;;;;5034018;28;20199;-64
2021/12/01 03:52:57;;;;;;;6.23;5.63;;;;;;;;;;5032829;28;20671;-64
2021/12/01 03:55:23;;;;;;;5.60;4.97;;;;;;;;;;5034101;28;20179;-65
2021/12/01 03:57:49;;;;;;;5.87;5.37;;;;;;;;;;5034101;28;20178;-64
2021/12/01 04:00:16;;;;;;;6.93;6.30;;;;;;;;;;5034582;28;20198;-64
2021/12/01 04:02:42;;;;;;;6.67;6.07;;;;;;;;;;5033901;28;20620;-64
2021/12/01 04:05:09;;;;;;;8.20;7.33;;;;;;;;;;5032032;28;20226;-64
2021/12/01 04:07:35;;;;;;;8.10;7.30;;;;;;;;;;5033781;28;20647;-64
2021/12/01 04:10:01;;;;;;;8.60;7.73;;;;;;;;;;5034122;28;20195;-65
2021/12/01 04:12:27;;;;;;;8.30;7.50;;;;;;;;;;5032368;28;20225;-65
2021/12/01 04:14:53;;;;;;;8.73;7.90;;;;;;;;;;5033838;28;20550;-65
2021/12/01 04:17:19;;;;;;;8.40;7.60;;;;;;;;;;5032384;28;20175;-64
2021/12/01 04:19:45;;;;;;;8.47;7.67;;;;;;;;;;5033473;28;20614;-64
2021/12/01 04:22:11;;;;;;;6.73;6.13;;;;;;;;;;5034139;28;20685;-65
2021/12/01 04:24:37;;;;;;;12.47;8.33;;;;;;;;;;5033608;28;20183;-64
2021/12/01 04:27:04;;;;;;;9.00;8.10;;;;;;;;;;5033570;28;20228;-64
2021/12/01 04:29:30;;;;;;;10.07;8.23;;;;;;;;;;5033304;28;20186;-64
2021/12/01 04:31:56;;;;;;;12.77;8.07;;;;;;;;;;5033666;28;20210;-64
2021/12/01 04:34:22;;;;;;;8.20;6.67;;;;;;;;;;5032228;28;20551;-64
2021/12/01 04:36:50;;;;;;;7.60;6.70;;;;;;;;;;5033396;28;20215;-65
2021/12/01 04:39:17;;;;;;;7.57;6.37;;;;;;;;;;5033843;28;20167;-64
2021/12/01 04:41:51;;;;;;;6.93;6.07;;;;;;;;;;5033477;28;20195;-64
2021/12/01 04:44:19;;;;;;;7.00;6.30;;;;;;;;;;5032089;28;20181;-64
2021/12/01 04:46:46;;;;;;;6.43;5.77;;;;;;;;;;5033258;28;20183;-64
2021/12/01 04:49:14;;;;;;;6.07;5.43;;;;;;;;;;5033378;28;20700;-64
2021/12/01 04:51:41;;;;;;;6.73;6.03;;;;;;;;;;5033012;28;20206;-64
2021/12/01 04:54:07;;;;;;;6.53;5.57;;;;;;;;;;5031985;28;20193;-64
2021/12/01 04:56:33;;;;;;;7.23;5.53;;;;;;;;;;5031983;28;20205;-65
2021/12/01 04:58:59;;;;;;;5.77;4.97;;;;;;;;;;5033309;28;20179;-64
2021/12/01 05:01:25;;;;;;;5.13;4.67;;;;;;;;;;5033101;28;20206;-64
2021/12/01 05:03:51;;;;;;;6.10;5.47;;;;;;;;;;5031895;28;20179;-64
2021/12/01 05:06:18;;;;;;;5.00;4.50;;;;;;;;;;5031774;28;20183;-64
2021/12/01 05:08:45;;;;;;;5.37;4.87;;;;;;;;;;5031758;28;20212;-64
2021/12/01 05:11:11;;;;;;;5.63;5.13;;;;;;;;;;5031810;28;20198;-64
2021/12/01 05:13:37;;;;;;;4.83;4.33;;;;;;;;;;5032969;28;20217;-64
2021/12/01 05:16:03;;;;;;;6.13;4.97;;;;;;;;;;5036089;28;20175;-64
2021/12/01 05:18:29;;;;;;;5.60;4.37;;;;;;;;;;5037525;28;20630;-64
2021/12/01 05:20:55;;;;;;;4.43;3.80;;;;;;;;;;5035620;28;20331;-64
2021/12/01 05:23:21;;;;;;;4.87;4.00;;;;;;;;;;5037235;28;20213;-64
2021/12/01 05:25:47;;;;;;;4.00;3.70;;;;;;;;;;5036826;28;20219;-65
2021/12/01 05:28:14;;;;;;;5.60;4.30;;;;;;;;;;5037222;28;20179;-64
2021/12/01 05:30:40;;;;;;;5.83;4.23;;;;;;;;;;5060615;22;20214;-60
2021/12/01 05:33:09;;;;;;;6.20;3.80;;;;;;;;;;5037819;28;20206;-62
2021/12/01 05:35:35;;;;;;;3.70;3.40;;;;;;;;;;5019516;28;20182;-62
2021/12/01 05:38:02;;;;;;;4.73;3.60;;;;;;;;;;5037479;28;20179;-62
2021/12/01 05:40:28;;;;;;;3.80;3.40;;;;;;;;;;5019345;28;20232;-62
2021/12/01 05:42:54;;;;;;;3.60;3.30;;;;;;;;;;5037011;28;20258;-62
2021/12/01 05:45:20;;;;;;;6.00;3.00;;;;;;;;;;5019725;28;20183;-62
2021/12/01 05:47:46;;;;;;;4.23;3.07;;;;;;;;;;5019330;28;20187;-62
2021/12/01 05:50:12;;;;;;;3.50;3.20;;;;;;;;;;5037214;28;20313;-62
2021/12/01 05:52:38;;;;;;;3.83;2.60;;;;;;;;;;5019280;28;20297;-62
2021/12/01 05:55:05;;;;;;;3.30;3.00;;;;;;;;;;5037143;28;20198;-63
2021/12/01 05:57:31;;;;;;;3.20;2.90;;;;;;;;;;5019374;28;20266;-62
2021/12/01 05:59:59;;;;;;;3.17;2.37;;;;;;;;;;5037037;28;20631;-63
2021/12/01 06:02:25;;;;;;;3.00;2.70;;;;;;;;;;5019036;28;20295;-62
2021/12/01 06:04:51;;;;;;;4.13;2.60;;;;;;;;;;5019558;28;20236;-63
2021/12/01 06:07:17;;;;;;;2.60;2.40;;;;;;;;;;5037459;28;20183;-64
2021/12/01 06:09:43;;;;;;;3.30;2.90;;;;;;;;;;5019117;28;20278;-63
2021/12/01 06:12:11;;;;;;;3.93;2.97;;;;;;;;;;5036993;28;20214;-62
2021/12/01 06:14:38;;;;;;;3.73;2.90;;;;;;;;;;5037405;28;20176;-63
2021/12/01 06:17:04;;;;;;;2.83;2.30;;;;;;;;;;5038339;28;20206;-63
2021/12/01 06:19:30;;;;;;;2.93;2.30;;;;;;;;;;5038651;28;20320;-62
2021/12/01 06:21:56;;;;;;;2.90;2.43;;;;;;;;;;5019688;28;20246;-62
2021/12/01 06:24:22;;;;;;;3.23;2.20;;;;;;;;;;5037899;28;20188;-63
2021/12/01 06:26:48;;;;;;;5.40;2.40;;;;;;;;;;5037264;28;20200;-63
2021/12/01 06:29:14;;;;;;;3.57;2.33;;;;;;;;;;5037883;28;20741;-62
2021/12/01 06:31:40;;;;;;;2.70;2.50;;;;;;;;;;5020975;28;20642;-63
2021/12/01 06:34:06;;;;;;;2.77;2.57;;;;;;;;;;5040140;28;20211;-63
2021/12/01 06:36:32;;;;;;;3.13;2.53;;;;;;;;;;5042003;28;20202;-63
2021/12/01 06:38:59;;;;;;;2.87;2.37;;;;;;;;;;5047959;28;20182;-63
2021/12/01 06:41:24;;;;;;;2.53;2.33;;;;;;;;;;5034040;28;20229;-63
2021/12/01 06:43:51;;;;;;;2.97;2.50;;;;;;;;;;5049178;28;20175;-64
2021/12/01 06:46:16;;;;;;;3.00;2.73;;;;;;;;;;5041109;28;20207;-63
2021/12/01 06:48:42;;;;;;;2.90;2.47;;;;;;;;;;5022166;28;20237;-64
2021/12/01 06:51:08;;;;;;;2.53;2.33;;;;;;;;;;5022511;28;20195;-64
2021/12/01 06:53:34;;;;;;;2.70;2.50;;;;;;;;;;5022786;28;20213;-64
2021/12/01 06:56:00;;;;;;;2.50;2.30;;;;;;;;;;5037563;28;20171;-63
2021/12/01 06:58:26;;;;;;;2.93;2.63;;;;;;;;;;5037498;28;20239;-64
2021/12/01 07:00:52;;;;;;;2.70;2.50;;;;;;;;;;5018794;28;20191;-64
2021/12/01 07:03:18;;;;;;;3.17;2.50;;;;;;;;;;5036485;28;20215;-64
2021/12/01 07:05:44;;;;;;;3.70;2.20;;;;;;;;;;5017978;28;20215;-64
2021/12/01 07:08:10;;;;;;;5.43;2.87;;;;;;;;;;5018121;28;20233;-65
2021/12/01 07:10:36;;;;;;;3.67;3.37;;;;;;;;;;5018082;28;20190;-64
2021/12/01 07:13:02;;;;;;;2.80;2.37;;;;;;;;;;5018238;28;20586;-64
2021/12/01 07:15:28;;;;;;;2.27;2.07;;;;;;;;;;5035918;28;20229;-64
2021/12/01 07:17:54;;;;;;;2.63;2.23;;;;;;;;;;5018259;28;20245;-63
2021/12/01 07:20:20;;;;;;;2.50;2.30;;;;;;;;;;5035982;28;20578;-63
2021/12/01 07:22:46;;;;;;;3.43;1.97;;;;;;;;;;5035426;28;20233;-63
2021/12/01 07:25:13;;;;;;;2.30;2.10;;;;;;;;;;5018011;28;20215;-63
2021/12/01 07:27:39;;;;;;;2.03;1.73;;;;;;;;;;5017975;28;20601;-63
2021/12/01 07:30:06;;;;;;;1.70;1.60;;;;;;;;;;5035628;28;20636;-63
2021/12/01 07:32:31;;;;;;;1.67;1.57;;;;;;;;;;5017451;28;20225;-62
2021/12/01 07:34:58;;;;;;;1.70;1.60;;;;;;;;;;5035315;28;20262;-63
2021/12/01 07:37:23;;;;;;;1.80;1.70;;;;;;;;;;5035090;28;20186;-63
2021/12/01 07:39:49;;;;;;;1.67;1.57;;;;;;;;;;5034074;28;20175;-63
2021/12/01 07:42:16;;;;;;;1.83;1.50;;;;;;;;;;5034830;28;20296;-62
2021/12/01 07:44:43;;;;;;;2.07;1.40;;;;;;;;;;5017417;28;20262;-62
2021/12/01 07:47:09;;;;;;;1.50;1.40;;;;;;;;;;5034998;28;20189;-63
2021/12/01 07:49:36;;;;;;;2.37;1.40;;;;;;;;;;5017085;28;20209;-63
2021/12/01 07:52:04;;;;;;;1.47;1.37;;;;;;;;;;5034621;28;20503;-62
2021/12/01 07:54:30;;;;;;;1.53;1.40;;;;;;;;;;5034744;28;20183;-63
2021/12/01 07:56:56;;;;;;;1.57;1.47;;;;;;;;;;5034855;28;20179;-63
2021/12/01 07:59:22;;;;;;;1.43;1.20;;;;;;;;;;5017080;28;20183;-64
2021/12/01 08:01:48;;;;;;;3.07;1.50;;;;;;;;;;5034657;28;20234;-62
2021/12/01 08:04:14;;;;;;;1.40;1.30;;;;;;;;;;5035179;28;20603;-62
2021/12/01 08:06:43;;;;;;;2.03;1.80;;;;;;;;;;5016965;28;20222;-62
2021/12/01 08:09:09;;;;;;;1.77;1.67;;;;;;;;;;5017212;28;20619;-62
2021/12/01 08:11:35;;;;;;;1.87;1.40;;;;;;;;;;5034716;28;20198;-63
2021/12/01 08:14:01;;;;;;;1.57;1.47;;;;;;;;;;5034681;28;20175;-63
2021/12/01 08:16:27;;;;;;;1.50;1.40;;;;;;;;;;5016809;28;20176;-62
2021/12/01 08:18:56;;;;;;;1.63;1.47;;;;;;;;;;5017350;28;20171;-62
2021/12/01 08:21:25;;;;;;;1.33;1.23;;;;;;;;;;5034657;28;20191;-61
2021/12/01 08:23:52;;;;;;;1.67;1.50;;;;;;;;;;5034631;28;20188;-63
2021/12/01 08:26:18;;;;;;;1.10;1.10;;;;;;;;;;5016951;28;20190;-63
2021/12/01 08:28:47;;;;;;;1.77;1.40;;;;;;;;;;5016695;28;20195;-63
2021/12/01 08:31:14;;;;;;;1.13;1.00;;;;;;;;;;5016646;28;20606;-62
2021/12/01 08:33:40;;;;;;;2.20;1.30;;;;;;;;;;5016648;28;20206;-62
2021/12/01 08:36:06;;;;;;;1.30;1.20;;;;;;;;;;5034904;28;20175;-62
2021/12/01 08:38:33;;;;;;;1.30;1.20;;;;;;;;;;5035296;28;20175;-63
2021/12/01 08:40:59;;;;;;;1.47;1.37;;;;;;;;;;5034495;28;20194;-62
2021/12/01 08:43:25;;;;;;;1.50;1.40;;;;;;;;;;5016769;28;20187;-62
2021/12/01 08:45:51;;;;;;;1.83;1.20;;;;;;;;;;5035107;28;20183;-62
2021/12/01 08:48:17;;;;;;;1.20;1.20;;;;;;;;;;5017503;28;20662;-62
2021/12/01 08:50:43;;;;;;;1.30;1.20;;;;;;;;;;5033658;28;20183;-62
2021/12/01 08:53:09;;;;;;;1.07;1.07;;;;;;;;;;5034228;28;20207;-62
2021/12/01 08:55:37;;;;;;;2.50;1.20;;;;;;;;;;5034227;28;20189;-62
2021/12/01 08:58:03;;;;;;;1.20;1.13;;;;;;;;;;5033973;28;20585;-62
2021/12/01 09:00:33;;;;;;;1.13;1.03;;;;;;;;;;5034466;28;20631;-62
2021/12/01 09:02:59;;;;;;;1.20;1.10;;;;;;;;;;5034506;28;20609;-63
2021/12/01 09:05:25;;;;;;;1.00;1.00;;;;;;;;;;5034105;28;20265;-62
2021/12/01 09:07:51;;;;;;;1.57;1.10;;;;;;;;;;5016009;28;20214;-62
2021/12/01 09:10:17;;;;;;;1.10;1.10;;;;;;;;;;5035633;28;20190;-62
2021/12/01 09:12:44;;;;;;;2.13;1.43;;;;;;;;;;5037822;28;20293;-62
2021/12/01 09:15:10;;;;;;;1.30;1.20;;;;;;;;;;5020853;28;20265;-62
2021/12/01 09:17:36;;;;;;;1.60;1.40;;;;;;;;;;5037074;28;20215;-62
2021/12/01 09:20:03;;;;;;;1.50;1.40;;;;;;;;;;5017066;28;20590;-62
2021/12/01 09:22:29;;;;;;;1.40;1.30;;;;;;;;;;5016108;28;20210;-62
2021/12/01 09:24:55;;;;;;;1.20;1.10;;;;;;;;;;5034068;28;20186;-62
2021/12/01 09:27:21;;;;;;;5.30;3.10;;;;;;;;;;5033527;28;20180;-62
2021/12/01 09:29:47;;;;;;;1.37;1.27;;;;;;;;;;5033485;28;20214;-62
2021/12/01 09:32:13;;;;;;;3.33;2.67;;;;;;;;;;5018224;28;20218;-62
2021/12/01 09:34:41;;;;;;;3.57;3.20;;;;;;;;;;5018757;28;20183;-62
2021/12/01 09:37:07;;;;;;;1.80;1.70;;;;;;;;;;5038187;28;20182;-63
2021/12/01 09:39:33;;;;;;;2.00;1.70;;;;;;;;;;5036788;28;20179;-62
2021/12/01 09:42:00;;;;;;;1.00;1.00;;;;;;;;;;5035970;28;20202;-63
2021/12/01 09:44:26;;;;;;;1.37;1.27;;;;;;;;;;5017274;28;20189;-62
2021/12/01 09:46:52;;;;;;;1.80;1.70;;;;;;;;;;5017238;28;20278;-62
2021/12/01 09:49:18;;;;;;;2.73;2.53;;;;;;;;;;5035081;28;20187;-63
2021/12/01 09:51:44;;;;;;;3.60;1.83;;;;;;;;;;5033700;28;20286;-62
2021/12/01 09:54:10;;;;;;;2.07;1.97;;;;;;;;;;5016947;28;20205;-62
2021/12/01 09:56:36;;;;;;;1.43;1.33;;;;;;;;;;5034541;28;20639;-62
2021/12/01 09:59:02;;;;;;;1.60;1.50;;;;;;;;;;5035985;28;20179;-63
2021/12/01 10:01:30;;;;;;;2.57;2.37;;;;;;;;;;5042151;28;20260;-63
2021/12/01 10:03:56;;;;;;;2.27;1.33;;;;;;;;;;5044828;28;20175;-63
2021/12/01 10:06:23;;;;;;;1.07;1.00;;;;;;;;;;5046452;28;20231;-63
2021/12/01 10:08:50;;;;;;;1.00;1.00;;;;;;;;;;5018843;28;20179;-62
2021/12/01 10:11:16;;;;;;;1.10;1.10;;;;;;;;;;5036702;28;20202;-63
2021/12/01 10:13:44;;;;;;;1.10;1.10;;;;;;;;;;5036405;28;20206;-62
2021/12/01 10:16:11;;;;;;;1.10;1.10;;;;;;;;;;5039125;28;20171;-63
2021/12/01 10:18:39;;;;;;;1.17;1.10;;;;;;;;;;5021799;28;20237;-63
2021/12/01 10:21:12;;;;;;;1.27;1.17;;;;;;;;;;5039369;28;20198;-63
2021/12/01 10:23:41;;;;;;;1.03;1.00;;;;;;;;;;5039568;28;20179;-63
2021/12/01 10:26:16;;;;;;;1.07;1.07;;;;;;;;;;5039569;28;20175;-63
2021/12/01 10:29:01;;;;;;;1.57;1.40;;;;;;;;;;5039433;28;20167;-63
2021/12/01 10:31:35;;;;;;;1.30;1.20;;;;;;;;;;5021850;28;20211;-63
2021/12/01 10:34:14;;;;;;;1.30;1.20;;;;;;;;;;5039215;28;20258;-63
2021/12/01 10:36:40;;;;;;;1.50;1.40;;;;;;;;;;5039501;28;20262;-63
2021/12/01 10:39:06;;;;;;;1.57;1.43;;;;;;;;;;5039491;28;20262;-63
2021/12/01 10:41:37;;;;;;;1.50;1.40;;;;;;;;;;5039308;28;20213;-63
2021/12/01 10:44:16;;;;;;;1.57;1.47;;;;;;;;;;5020679;28;20556;-63
2021/12/01 10:46:44;;;;;;;1.30;1.20;;;;;;;;;;5038297;28;20238;-64
2021/12/01 10:49:10;;;;;;;1.10;1.10;;;;;;;;;;5038935;28;20183;-63
2021/12/01 10:51:37;;;;;;;1.40;1.30;;;;;;;;;;5038874;28;20210;-63
2021/12/01 10:54:04;;;;;;;1.00;1.00;;;;;;;;;;5020804;28;20179;-63
2021/12/01 10:56:31;;;;;;;1.30;1.30;;;;;;;;;;5020649;28;20202;-64
2021/12/01 10:59:08;;;;;;;1.30;1.20;;;;;;;;;;5038172;28;20199;-63
2021/12/01 11:01:34;;;;;;;1.97;1.43;;;;;;;;;;5038189;28;20203;-63
2021/12/01 11:04:00;;;;;;;1.77;1.67;;;;;;;;;;5036179;28;20171;-63
2021/12/01 11:06:27;;;;;;;2.50;1.47;;;;;;;;;;5018411;28;20187;-64
2021/12/01 11:09:00;;;;;;;1.50;1.40;;;;;;;;;;5035998;28;20225;-64
2021/12/01 11:11:55;;;;;;;3.07;2.50;;;;;;;;;;5035373;28;20679;-64
2021/12/01 11:14:22;;;;;;;1.77;1.67;;;;;;;;;;5018601;28;20203;-64
2021/12/01 11:16:48;;;;;;;5.87;1.97;;;;;;;;;;5035539;28;20178;-64
2021/12/01 11:19:14;;;;;;;2.00;1.80;;;;;;;;;;5035794;28;20253;-65
2021/12/01 11:21:41;;;;;;;2.23;2.03;;;;;;;;;;5017378;28;20195;-66
2021/12/01 11:24:10;;;;;;;2.90;2.70;;;;;;;;;;5035436;28;20175;-66
2021/12/01 11:26:37;;;;;;;3.13;2.20;;;;;;;;;;5034997;28;20182;-66
2021/12/01 11:29:09;;;;;;;2.40;2.20;;;;;;;;;;5035078;28;20258;-65
2021/12/01 11:31:39;;;;;;;2.30;2.10;;;;;;;;;;5022852;28;20215;-68
2021/12/01 11:34:07;;;;;;;2.60;2.40;;;;;;;;;;5056840;28;20186;-67
2021/12/01 11:36:37;;;;;;;2.50;2.30;;;;;;;;;;5054301;28;20247;-65
2021/12/01 11:39:17;;;;;;;5.47;3.10;;;;;;;;;;5026558;28;20183;-65
2021/12/01 11:41:43;;;;;;;4.90;2.37;;;;;;;;;;5037179;28;20667;-65
2021/12/01 11:44:10;;;;;;;3.63;2.20;;;;;;;;;;5035377;28;20275;-65
2021/12/01 11:46:37;;;;;;;4.37;2.10;;;;;;;;;;5035631;28;20258;-65
2021/12/01 11:49:08;;;;;;;3.00;2.17;;;;;;;;;;5034979;28;20175;-65
2021/12/01 11:51:45;;;;;;;5.53;2.60;;;;;;;;;;5034949;28;20195;-65
2021/12/01 11:54:15;;;;;;;2.93;2.20;;;;;;;;;;5034879;28;20174;-66
2021/12/01 11:56:52;;;;;;;2.50;2.27;;;;;;;;;;5017197;28;20183;-65
2021/12/01 11:59:23;;;;;;;6.37;2.20;;;;;;;;;;5034811;28;20156;-65
2021/12/01 12:01:50;;;;;;;2.70;2.17;;;;;;;;;;5016801;28;20301;-64
2021/12/01 12:04:17;;;;;;;4.50;2.30;;;;;;;;;;5034654;28;20187;-64
2021/12/01 12:06:49;;;;;;;4.97;2.07;;;;;;;;;;5034532;28;20198;-63
2021/12/01 12:09:18;;;;;;;5.30;2.20;;;;;;;;;;5034619;28;20171;-63
2021/12/01 12:11:48;;;;;;;4.17;2.23;;;;;;;;;;5034231;28;20191;-63
2021/12/01 12:14:16;;;;;;;2.43;1.70;;;;;;;;;;5034411;28;20175;-63
2021/12/01 12:17:00;;;;;;;7.37;2.20;;;;;;;;;;5034519;28;20175;-63
2021/12/01 12:19:50;;;;;;;3.50;1.93;;;;;;;;;;5034665;28;20167;-63
2021/12/01 12:22:20;;;;;;;5.93;2.00;;;;;;;;;;5017894;28;20214;-63
2021/12/01 12:24:51;;;;;;;7.17;1.93;;;;;;;;;;5040365;28;20689;-63
2021/12/01 12:27:29;;;;;;;3.93;2.20;;;;;;;;;;5019962;28;20171;-63
2021/12/01 12:29:58;;;;;;;3.07;1.80;;;;;;;;;;5034127;28;20257;-63
2021/12/01 12:32:29;;;;;;;4.90;1.80;;;;;;;;;;5015813;28;20214;-63
2021/12/01 12:34:56;;;;;;;4.80;2.30;;;;;;;;;;5034302;28;20156;-63
2021/12/01 12:37:24;;;;;;;7.83;2.60;;;;;;;;;;5034085;28;20186;-63
2021/12/01 12:39:52;;;;;;;6.87;2.77;;;;;;;;;;5034079;28;20548;-63
2021/12/01 12:42:18;;;;;;;7.53;3.20;;;;;;;;;;5034123;28;20203;-64
2021/12/01 12:44:46;;;;;;;2.73;1.73;;;;;;;;;;5015985;28;20183;-64
2021/12/01 12:47:15;;;;;;;3.43;2.37;;;;;;;;;;5016020;28;20179;-63
2021/12/01 12:49:46;;;;;;;4.27;2.80;;;;;;;;;;5033622;28;20182;-62
2021/12/01 12:52:27;;;;;;;4.50;2.53;;;;;;;;;;5034835;28;20211;-62
2021/12/01 12:54:53;;;;;;;3.53;1.70;;;;;;;;;;5035479;28;20178;-63
2021/12/01 12:57:20;;;;;;;4.70;1.73;;;;;;;;;;5035370;28;20569;-64
2021/12/01 12:59:46;;;;;;;5.80;1.90;;;;;;;;;;5035529;28;20186;-64
2021/12/01 13:02:14;;;;;;;4.27;1.80;;;;;;;;;;5035331;28;20198;-63
2021/12/01 13:04:51;;;;;;;3.27;1.60;;;;;;;;;;5035254;28;20261;-64
2021/12/01 13:07:34;;;;;;;3.53;1.40;;;;;;;;;;5035142;28;20202;-63
2021/12/01 13:10:03;;;;;;;3.00;1.53;;;;;;;;;;5034094;28;20179;-63
2021/12/01 13:12:29;;;;;;;6.90;2.20;;;;;;;;;;5034022;28;20210;-63
2021/12/01 13:14:55;;;;;;;5.87;1.80;;;;;;;;;;5034666;28;20238;-63
2021/12/01 13:17:21;;;;;;;2.60;1.93;;;;;;;;;;5035176;28;20667;-63
2021/12/01 13:19:47;;;;;;;3.37;2.20;;;;;;;;;;5017255;28;20178;-63
2021/12/01 13:22:13;;;;;;;6.53;1.80;;;;;;;;;;5016931;28;20607;-63
2021/12/01 13:24:39;;;;;;;4.83;1.90;;;;;;;;;;5033906;28;20179;-63
2021/12/01 13:27:05;;;;;;;5.27;2.37;;;;;;;;;;5033774;28;20175;-63
2021/12/01 13:29:31;;;;;;;5.63;2.00;;;;;;;;;;5033589;28;20185;-63
2021/12/01 13:31:57;;;;;;;2.10;1.50;;;;;;;;;;5033216;28;20222;-63
2021/12/01 13:34:26;;;;;;;6.23;2.00;;;;;;;;;;5015655;28;20179;-63
2021/12/01 13:36:53;;;;;;;4.33;1.67;;;;;;;;;;5034752;28;20197;-63
2021/12/01 13:39:29;;;;;;;5.70;1.63;;;;;;;;;;5019636;28;20179;-63
2021/12/01 13:42:00;;;;;;;7.40;2.20;;;;;;;;;;5019723;28;20706;-63
2021/12/01 13:44:37;;;;;;;6.93;1.87;;;;;;;;;;5019868;28;20186;-63
2021/12/01 13:47:13;;;;;;;5.67;2.30;;;;;;;;;;5037569;28;20221;-63
2021/12/01 13:49:41;;;;;;;6.10;1.77;;;;;;;;;;5019335;28;20233;-62
2021/12/01 13:52:08;;;;;;;7.83;1.70;;;;;;;;;;5037082;28;20768;-63
2021/12/01 13:54:34;;;;;;;2.50;1.70;;;;;;;;;;5019171;28;20238;-63
2021/12/01 13:57:11;;;;;;;5.97;1.60;;;;;;;;;;5037204;28;20175;-62
2021/12/01 13:59:40;;;;;;;5.13;1.80;;;;;;;;;;5021708;28;20179;-63
2021/12/01 14:02:06;;;;;;;4.13;1.80;;;;;;;;;;5022203;28;20238;-63
2021/12/01 14:04:32;;;;;;;2.83;1.60;;;;;;;;;;5039797;28;20229;-63
2021/12/01 14:06:58;;;;;;;3.80;1.77;;;;;;;;;;5021824;28;20187;-62
2021/12/01 14:09:47;;;;;;;4.60;1.53;;;;;;;;;;5039698;28;20183;-64
2021/12/01 14:12:17;;;;;;;5.23;1.83;;;;;;;;;;4986053;28;20233;-63
2021/12/01 14:14:43;;;;;;;4.83;1.77;;;;;;;;;;5039046;28;20180;-63
2021/12/01 14:17:09;;;;;;;2.00;1.40;;;;;;;;;;5039498;28;20225;-63
2021/12/01 14:19:35;;;;;;;6.43;1.50;;;;;;;;;;5039418;28;20593;-64
2021/12/01 14:22:02;;;;;;;7.10;2.07;;;;;;;;;;5020931;28;20210;-63
2021/12/01 14:24:30;;;;;;;2.37;1.43;;;;;;;;;;5038491;28;20179;-63
2021/12/01 14:26:56;;;;;;;7.60;2.13;;;;;;;;;;5021064;28;20187;-63
2021/12/01 14:29:22;;;;;;;7.60;1.73;;;;;;;;;;5038987;28;20190;-62
2021/12/01 14:31:56;;;;;;;5.63;1.90;;;;;;;;;;5020848;28;20230;-64
2021/12/01 14:34:24;;;;;;;9.03;2.00;;;;;;;;;;5038750;28;20253;-63
2021/12/01 14:36:52;;;;;;;4.67;1.73;;;;;;;;;;5038787;28;20175;-63
2021/12/01 14:39:19;;;;;;;6.47;2.20;;;;;;;;;;5039084;28;20186;-63
2021/12/01 14:41:46;;;;;;;5.93;2.00;;;;;;;;;;5019713;28;20203;-63
2021/12/01 14:44:12;;;;;;;5.73;1.97;;;;;;;;;;5035878;28;20179;-63
2021/12/01 14:46:39;;;;;;;4.00;2.17;;;;;;;;;;5036107;28;20198;-63
2021/12/01 14:49:06;;;;;;;5.23;1.93;;;;;;;;;;5017582;28;20245;-62